Flight Track Log - Related Links

Times and Time Zones

All times are in EDT time to prevent confusion due to time zone crossing. See the EJA982 flight status page for this flight to view local times or setup timezone preferences in your user account.

Time Position Orientation Groundspeed Altitude Reporting Facility
EDT Latitude Longitude Course Direction KTS MPH feet Rate Location/Type
Thu 08:13:55 AM 37.6325 -97.4317 196° South 194 223 2,400  Level Kansas City Center
Thu 08:14:33 AM 37.6047 -97.4414 195° South 211 243 4,500 3,515 Climbing Kansas City Center
Thu 08:15:34 AM 37.5322 -97.4297 173° South 269 310 8,200 3,854 Climbing Kansas City Center
Thu 08:16:36 AM 37.4478 -97.4167 173° South 301 346 12,400 3,122 Climbing Kansas City Center
Thu 08:17:37 AM 37.3464 -97.4011 173° South 359 413 14,600 2,066 Climbing Kansas City Center
Thu 08:18:38 AM 37.2403 -97.3731 168° South 378 435 16,600 2,016 Climbing Kansas City Center
Thu 08:19:39 AM 37.1331 -97.3244 160° South 396 456 18,700 2,066 Climbing Kansas City Center
Thu 08:20:40 AM 37.0258 -97.2756 160° South 407 468 20,800 2,049 Climbing Kansas City Center
Thu 08:21:42 AM 36.8925 -97.2172 161° South 419 482 22,900 1,610 Climbing Kansas City Center
Thu 08:22:43 AM 36.7833 -97.1736 162° South 426 490 24,100 1,082 Climbing Kansas City Center
Thu 08:23:44 AM 36.6622 -97.1850 184° South 445 512 25,100 1,122 Climbing Kansas City Center
Thu 08:24:46 AM 36.5417 -97.2281 196° South 449 517 26,400 1,268 Climbing Kansas City Center
Thu 08:25:47 AM 36.4169 -97.2692 195° South 459 528 27,700 1,721 Climbing Kansas City Center
Thu 08:26:48 AM 36.2894 -97.3092 194° South 470 541 29,900 2,146 Climbing Kansas City Center
Thu 08:27:50 AM 36.1394 -97.3594 195° South 468 539 32,100 1,902 Climbing Kansas City Center
Thu 08:28:51 AM 36.0097 -97.4025 195° South 478 550 33,800 934 Climbing Kansas City Center
Thu 08:29:52 AM 35.8739 -97.4453 194° South 495 570 34,000 98 Climbing Kansas City Center
Thu 08:30:54 AM 35.7342 -97.4917 195° South 516 594 34,000  Level Kansas City Center
Thu 08:31:55 AM 35.5947 -97.5356 194° South 521 600 34,000  Level Kansas City Center
Thu 08:32:56 AM 35.4569 -97.5808 195° South 524 603 34,000  Level Kansas City Center
Thu 08:33:58 AM 35.2933 -97.5883 182° South 515 593 34,000  Level Kansas City Center
Thu 08:34:59 AM 35.1633 -97.5364 162° South 502 578 34,000 393 Level Kansas City Center
Thu 08:36:00 AM 35.0322 -97.4856 162° South 498 573 34,800 1,463 Climbing Kansas City Center
Thu 08:37:02 AM 34.9006 -97.4339 162° South 501 577 37,000 1,119 Climbing Kansas City Center
Thu 08:37:58 AM 34.7556 -97.3908 166° South 505 581 37,000  Level Fort Worth Center
Thu 08:38:58 AM 34.6136 -97.3503 167° South 516 594 37,000  Level Fort Worth Center
Thu 08:39:58 AM 34.4739 -97.3253 172° South 516 594 37,000  Level Fort Worth Center
Thu 08:40:58 AM 34.3361 -97.3003 171° South 510 587 37,000  Level Fort Worth Center
Thu 08:41:58 AM 34.2025 -97.2753 171° South 503 579 37,000  Level Fort Worth Center
Thu 08:42:58 AM 34.0669 -97.2506 171° South 498 573 37,000  Level Fort Worth Center
Thu 08:43:58 AM 33.9333 -97.2258 171° South 498 573 37,000  Level Fort Worth Center
Thu 08:44:58 AM 33.7956 -97.2061 173° South 498 573 37,000  Level Fort Worth Center
Thu 08:45:58 AM 33.6639 -97.1764 169° South 484 557 37,000  Level Fort Worth Center
Thu 08:46:58 AM 33.5303 -97.1544 172° South 484 557 37,000  Level Fort Worth Center
Thu 08:47:58 AM 33.3903 -97.1272 171° South 495 570 37,000  Level Fort Worth Center
Thu 08:48:58 AM 33.2483 -97.1056 173° South 510 587 37,000  Level Fort Worth Center
Thu 08:49:58 AM 33.1147 -97.0786 170° South 510 587 37,000  Level Fort Worth Center
Thu 08:50:58 AM 32.9936 -97.0567 171° South 499 574 37,000  Level Fort Worth Center
Thu 08:51:58 AM 32.8433 -97.0303 172° South 499 574 37,000  Level Fort Worth Center
Thu 08:52:58 AM 32.7222 -97.0108 172° South 499 574 37,000  Level Fort Worth Center
Thu 08:53:58 AM 32.5717 -96.9869 172° South 499 574 37,000  Level Fort Worth Center
Thu 08:54:58 AM 32.4525 -96.9653 171° South 499 574 37,000  Level Fort Worth Center
Thu 08:55:58 AM 32.3064 -96.9414 172° South 494 568 37,000  Level Fort Worth Center
Thu 08:56:58 AM 32.1914 -96.9225 172° South 481 554 37,000  Level Fort Worth Center
Thu 08:57:58 AM 32.0578 -96.8986 171° South 481 554 37,000  Level Fort Worth Center
Thu 08:58:58 AM 31.9242 -96.8772 172° South 487 560 37,000  Level Fort Worth Center
Thu 08:59:57 AM 31.7931 -96.8531 171° South 477 549 37,000  Level Houston Center
Thu 09:00:59 AM 31.6594 -96.8306 172° South 479 551 37,000  Level Houston Center
Thu 09:02:00 AM 31.5247 -96.8089 172° South 479 551 37,000 -195 Level Houston Center
Thu 09:03:02 AM 31.3906 -96.7875 172° South 481 554 36,600 -1,500 Descending Houston Center
Thu 09:04:04 AM 31.2503 -96.7650 172° South 496 571 33,900 -2,613 Descending Houston Center
Thu 09:05:06 AM 31.1050 -96.7411 172° South 514 592 31,200 -2,976 Descending Houston Center
Thu 09:06:07 AM 30.9333 -96.7136 172° South 522 601 27,800 -3,024 Descending Houston Center
Thu 09:07:09 AM 30.7883 -96.6906 172° South 518 596 25,000 -2,661 Descending Houston Center
Thu 09:08:11 AM 30.6481 -96.6697 173° South 503 579 22,300 -2,613 Descending Houston Center
Thu 09:09:13 AM 30.5269 -96.5919 151° Southeast 495 570 19,600 -2,565 Descending Houston Center
Thu 09:10:15 AM 30.4322 -96.4789 134° Southeast 482 555 17,000 -2,439 Descending Houston Center
Thu 09:11:16 AM 30.3461 -96.3739 134° Southeast 449 517 14,600 -2,345 Descending Houston Center
Thu 09:12:05 AM 30.2736 -96.2900 135° Southeast 433 498 12,700 -1,742 Descending Houston Center
Thu 09:13:20 AM 30.1675 -96.1864 140° Southeast 425 489 11,000 -981 Descending Houston Center
Thu 09:13:49 AM 30.1025 -96.1522 156° South 417 480 11,000  Level Houston Center
Thu 09:14:22 AM 30.0536 -96.1247 154° Southeast 420 483 11,000  Level Houston Center
Thu 09:14:45 AM 30.0081 -96.1025 157° South 416 479 11,000 -97 Level Houston Center
Thu 09:15:24 AM 29.9483 -96.0681 153° Southeast 418 481 10,900  Descending Houston Center
Thu 09:15:46 AM 29.9044 -96.0444 155° Southeast 374 430 11,000  Climbing Houston Center
Thu 09:16:26 AM 29.8581 -96.0208 156° South 351 404 10,900  Descending Houston Center
Thu 09:16:47 AM 29.8189 -96.0011 156° South 315 362 11,000 98 Climbing Houston Center
Thu 09:17:27 AM 29.7731 -95.9756 154° Southeast 318 366 11,000  Level Houston Center
Thu 09:17:54 AM 29.7364 -95.9456 145° Southeast 336 387 11,000 -290 Level Houston Center
Thu 09:18:29 AM 29.7000 -95.9119 141° Southeast 328 377 10,700 -1,279 Descending Houston Center
Thu 09:18:55 AM 29.6656 -95.8817 143° Southeast 314 361 9,700 -1,742 Descending Houston Center
Thu 09:19:31 AM 29.6319 -95.8522 143° Southeast 314 361 8,900 -1,548 Descending Houston Center
Thu 09:19:57 AM 29.5950 -95.8178 141° Southeast 293 337 8,100 -1,548 Descending Houston Center
Thu 09:20:33 AM 29.5786 -95.7872 122° Southeast 287 330 7,300 -2,066 Descending Houston Center
Thu 09:20:58 AM 29.5750 -95.7358 95° East 278 320 6,000 -1,258 Descending Houston Center
Thu 09:21:35 AM 29.5944 -95.6861 66° East 274 315 6,000  Level Houston Center
Thu 09:21:59 AM 29.6083 -95.6600 59° Northeast 258 297 6,000 -194 Level Houston Center
Thu 09:22:37 AM 29.6311 -95.6147 60° Northeast 261 300 5,800 -982 Descending Houston Center
Thu 09:22:54 AM 29.6425 -95.5958 55° Northeast 253 291 5,100 -1,714 Descending Houston Center
Thu 09:23:40 AM 29.6786 -95.5533 46° Northeast 261 300 4,000 -1,254 Descending Houston Center
Thu 09:24:01 AM 29.6994 -95.5292 45° Northeast 238 274 3,700 -871 Descending Houston Center
Thu 09:24:42 AM 29.7231 -95.5025 44° Northeast 229 264 3,100 -984 Descending Houston Center
Thu 09:25:02 AM 29.7414 -95.4833 42° Northeast 200 230 2,700 -1,065 Descending Houston Center
Thu 09:25:44 AM 29.7639 -95.4614 40° Northeast 205 236 2,000 -404 Descending Houston Center
Thu 09:26:46 AM 29.7550 -95.4119 102° East 179 206 2,000  Level Houston Center
Thu 09:27:05 AM 29.7439 -95.3964 129° Southeast 140 161 2,000  Level Houston Center
Thu 09:27:48 AM 29.7222 -95.3706 134° Southeast 155 178 2,000 -98 Level Houston Center
Thu 09:28:06 AM 29.7133 -95.3614 138° Southeast 140 161 1,900 -581 Descending Houston Center
Thu 09:28:50 AM 29.6972 -95.3411 132° Southeast 142 163 1,400 -689 Descending Houston Center
Thu 09:29:07 AM 29.6897 -95.3331 137° Southeast 115 132 1,200 -581 Descending Houston Center
Thu 09:29:52 AM 29.6747 -95.3144 133° Southeast 128 147 800 -590 Descending Houston Center
Thu 09:30:08 AM 29.6661 -95.3047 136° Southeast 120 138 600 -581 Descending Houston Center
Thu 09:30:54 AM 29.6522 -95.2875 133° Southeast 122 140 200 -522 Descending Houston Center
Thu 09:32:00 AM 29.6454 -95.2789 115° Southeast  Level Estimated

Login

Don't have an account? Register now (free) for customized features, flight alerts, and more!